Glendale, Colorado
Current Conditions -  °F | °C
As of 12:53 PM on Monday 24 Nov 2014 (Local Time) from KAPA Reporting Station
Broken Clouds Broken Clouds  
Wind Chill: 31°   Ceiling: 20000
Heat Index: 40°   Visibility: 10mi
Dew Point:   Wind: 16mph
Humidity: 23%   Direction: 310°NW
Pressure: 29.97"   Gusts: 24mph
Location:  39.6814°N, 104.925°W
Report Text: KAPA 241953Z 31014G21KT 10SM FEW110 SCT150 BKN200 04/M15 A2997 RMK AO2 PK WND 34027/1904 SLP170 SHRA OMTNS DSNT SW-W T00441150
Loading
Personal Weather Stations






























Interactive Weather Map New forecast layout! Learn more

10-Day Weather Forecast

Advertisements
Track Severe Weather on mobile